Time;durP1;ratioP1;P1;durP2;ratioP2;P2;SDS_P1;SDS_P2;PMS_P1;PMS_P2;Temp;Humidity;BMP_temperature;BMP_pressure;BME280_temperature;BME280_humidity;BME280_pressure;Samples;Min_cycle;Max_cycle;Signal;HPM_P1;HPM_P2
2023/03/09 00:01:43;;;;;;;18.13;9.15;;;1.90;95.80;;;;;;4982140;28;20054;-64
2023/03/09 00:04:13;;;;;;;11.10;9.02;;;1.80;96.00;;;;;;5076419;23;21349;-64
2023/03/09 00:06:39;;;;;;;17.50;9.23;;;1.90;96.50;;;;;;4996135;28;20113;-64
2023/03/09 00:09:06;;;;;;;12.38;9.65;;;1.90;95.90;;;;;;4975462;28;20046;-64
2023/03/09 00:11:31;;;;;;;17.17;11.25;;;1.90;95.70;;;;;;4972409;28;20507;-64
2023/03/09 00:13:57;;;;;;;20.13;12.38;;;1.90;95.90;;;;;;4989837;28;20050;-64
2023/03/09 00:16:26;;;;;;;18.45;12.70;;;1.90;96.50;;;;;;4983077;28;20046;-64
2023/03/09 00:18:53;;;;;;;21.30;11.93;;;1.90;96.80;;;;;;4990168;28;20061;-64
2023/03/09 00:21:36;;;;;;;17.67;10.45;;;1.90;96.30;;;;;;5005453;28;20042;-64
2023/03/09 00:24:11;;;;;;;18.92;9.70;;;2.00;96.40;;;;;;4979324;28;20124;-64
2023/03/09 00:26:39;;;;;;;14.15;10.80;;;1.90;96.00;;;;;;4971144;28;20077;-64
2023/03/09 00:29:06;;;;;;;15.05;10.30;;;1.90;95.50;;;;;;4953498;28;20117;-64
2023/03/09 00:31:32;;;;;;;14.02;10.48;;;1.80;95.60;;;;;;5000362;28;20041;-64
2023/03/09 00:33:58;;;;;;;15.75;10.13;;;1.80;95.70;;;;;;4987489;28;20047;-64
2023/03/09 00:36:24;;;;;;;14.70;9.43;;;1.80;95.60;;;;;;4989305;28;20050;-64
2023/03/09 00:38:51;;;;;;;15.95;8.95;;;1.90;95.30;;;;;;4988066;28;20445;-64
2023/03/09 00:41:18;;;;;;;11.55;8.73;;;1.90;93.90;;;;;;4989334;28;20535;-64
2023/03/09 00:43:43;;;;;;;11.75;8.63;;;1.90;93.50;;;;;;4988307;28;20038;-64
2023/03/09 00:46:09;;;;;;;13.98;8.77;;;1.80;93.70;;;;;;4996385;28;20506;-64
2023/03/09 00:48:38;;;;;;;12.98;7.97;;;1.80;93.20;;;;;;4987371;28;20168;-64
2023/03/09 00:51:05;;;;;;;10.73;7.38;;;1.80;93.40;;;;;;4969515;28;20055;-64
2023/03/09 00:53:30;;;;;;;12.35;7.45;;;1.80;92.30;;;;;;5005396;28;20042;-64
2023/03/09 00:56:05;;;;;;;9.85;7.80;;;1.80;91.90;;;;;;5001445;28;20515;-64
2023/03/09 00:58:31;;;;;;;10.50;8.07;;;1.80;92.10;;;;;;4988336;28;20038;-64
2023/03/09 01:00:57;;;;;;;13.80;8.68;;;1.80;92.30;;;;;;4969853;28;20105;-64
2023/03/09 01:03:22;;;;;;;10.45;8.68;;;1.80;92.80;;;;;;4986953;28;20551;-64
2023/03/09 01:05:48;;;;;;;15.10;10.00;;;1.80;92.70;;;;;;4986885;28;20089;-64
2023/03/09 01:08:15;;;;;;;16.38;11.32;;;1.80;92.70;;;;;;4990563;28;20416;-64
2023/03/09 01:10:41;;;;;;;21.27;12.00;;;1.70;92.80;;;;;;4987051;28;20050;-64
2023/03/09 01:13:09;;;;;;;13.60;10.35;;;1.70;93.00;;;;;;4986231;28;20093;-64
2023/03/09 01:15:36;;;;;;;17.20;10.52;;;1.70;93.30;;;;;;4968806;28;20103;-64
2023/03/09 01:18:01;;;;;;;16.88;9.55;;;1.70;93.00;;;;;;4996518;28;20562;-64
2023/03/09 01:20:27;;;;;;;16.55;10.65;;;1.70;93.00;;;;;;4985794;28;20042;-64
2023/03/09 01:22:53;;;;;;;14.15;10.02;;;1.60;92.40;;;;;;4986623;28;20046;-64
2023/03/09 01:25:18;;;;;;;21.67;12.07;;;1.70;91.60;;;;;;4983954;28;20046;-64
2023/03/09 01:27:44;;;;;;;17.17;11.65;;;1.60;91.80;;;;;;4986958;28;20499;-64
2023/03/09 01:30:11;;;;;;;15.82;10.65;;;1.60;92.00;;;;;;4985368;28;20058;-64
2023/03/09 01:32:38;;;;;;;16.40;11.40;;;1.60;92.60;;;;;;4986971;28;20050;-64
2023/03/09 01:35:05;;;;;;;17.98;10.02;;;1.60;92.80;;;;;;4986433;28;20058;-63
2023/03/09 01:37:31;;;;;;;14.38;9.85;;;1.50;92.80;;;;;;4968789;28;20050;-64
2023/03/09 01:39:57;;;;;;;14.77;9.98;;;1.50;92.50;;;;;;4982791;28;20042;-64
2023/03/09 01:42:22;;;;;;;15.80;9.05;;;1.50;91.90;;;;;;4971423;28;20038;-64
2023/03/09 01:45:18;;;;;;;16.40;10.93;;;1.50;92.20;;;;;;4995498;28;20077;-64
2023/03/09 01:47:44;;;;;;;15.98;10.48;;;1.40;93.50;;;;;;5000231;28;20046;-64
2023/03/09 01:50:11;;;;;;;18.45;10.75;;;1.40;93.80;;;;;;4980658;28;20051;-64
2023/03/09 01:52:38;;;;;;;16.48;10.57;;;1.30;94.30;;;;;;5001752;28;20104;-64
2023/03/09 01:55:10;;;;;;;19.65;12.27;;;1.30;94.90;;;;;;4995134;28;20039;-65
2023/03/09 01:57:51;;;;;;;18.90;12.77;;;1.20;96.00;;;;;;4985328;28;20111;-64
2023/03/09 02:00:24;;;;;;;24.05;12.85;;;1.20;97.20;;;;;;4997428;28;20042;-64
2023/03/09 02:03:04;;;;;;;18.52;12.15;;;1.10;97.80;;;;;;4996768;28;20042;-64
2023/03/09 02:05:36;;;;;;;19.30;12.57;;;1.10;98.60;;;;;;4994288;28;20046;-64
2023/03/09 02:08:03;;;;;;;23.80;13.90;;;1.10;98.60;;;;;;4992489;28;20051;-65
2023/03/09 02:10:35;;;;;;;21.33;13.02;;;1.00;99.40;;;;;;4995898;28;20046;-64
2023/03/09 02:13:08;;;;;;;20.50;12.68;;;1.00;99.40;;;;;;4987810;28;20129;-64
2023/03/09 02:15:34;;;;;;;23.42;14.65;;;0.90;99.90;;;;;;4990505;28;20072;-64
2023/03/09 02:18:00;;;;;;;25.27;14.25;;;0.90;99.90;;;;;;4987202;28;20367;-64
2023/03/09 02:20:36;;;;;;;21.70;12.88;;;0.90;99.90;;;;;;4990113;28;20046;-64
2023/03/09 02:23:05;;;;;;;25.33;13.68;;;0.90;99.90;;;;;;4989549;28;20050;-64
2023/03/09 02:25:45;;;;;;;19.58;12.75;;;0.90;99.90;;;;;;4970439;28;20042;-64
2023/03/09 02:28:11;;;;;;;21.40;12.68;;;0.90;99.90;;;;;;4990187;28;20053;-64
2023/03/09 02:30:39;;;;;;;22.80;14.40;;;0.90;99.90;;;;;;4993178;28;20050;-64
2023/03/09 02:33:08;;;;;;;24.42;14.02;;;0.90;99.90;;;;;;4989142;28;20050;-64
2023/03/09 02:35:34;;;;;;;24.88;13.38;;;0.90;99.90;;;;;;4989580;28;20039;-64
2023/03/09 02:38:00;;;;;;;21.38;14.02;;;0.90;99.90;;;;;;4984062;28;20068;-64
2023/03/09 02:40:35;;;;;;;23.77;14.50;;;0.90;99.90;;;;;;4972159;28;20173;-64
2023/03/09 02:43:04;;;;;;;23.33;14.50;;;0.90;99.90;;;;;;4989820;28;20133;-64
2023/03/09 02:45:31;;;;;;;24.38;14.95;;;0.90;99.90;;;;;;4989468;28;20046;-64
2023/03/09 02:47:58;;;;;;;20.02;13.27;;;0.90;99.90;;;;;;4987333;28;20496;-64
2023/03/09 02:50:24;;;;;;;25.83;14.32;;;0.80;99.90;;;;;;4989288;28;20573;-64
2023/03/09 02:52:50;;;;;;;22.35;14.55;;;0.80;99.90;;;;;;4980388;28;20092;-64
2023/03/09 02:55:16;;;;;;;26.23;15.13;;;0.80;99.90;;;;;;4988025;28;20109;-64
2023/03/09 02:57:42;;;;;;;22.40;14.98;;;0.80;99.90;;;;;;4972102;28;20495;-64
2023/03/09 03:00:11;;;;;;;23.23;14.45;;;0.80;99.90;;;;;;4969364;28;20189;-64
2023/03/09 03:02:38;;;;;;;28.73;16.05;;;0.80;99.90;;;;;;4989411;28;20081;-64
2023/03/09 03:05:05;;;;;;;25.20;15.50;;;0.80;99.90;;;;;;4987802;28;20104;-64
2023/03/09 03:07:30;;;;;;;23.20;14.23;;;0.80;99.90;;;;;;4988364;28;20039;-64
2023/03/09 03:09:56;;;;;;;28.10;15.68;;;0.80;99.90;;;;;;4988211;28;20046;-64
2023/03/09 03:12:22;;;;;;;25.38;16.25;;;0.80;99.90;;;;;;4965977;28;20057;-64
2023/03/09 03:14:48;;;;;;;26.50;16.35;;;0.80;99.90;;;;;;4993720;28;20053;-64
2023/03/09 03:17:14;;;;;;;28.08;16.85;;;0.90;99.90;;;;;;4987856;28;20058;-64
2023/03/09 03:19:40;;;;;;;27.83;15.25;;;0.90;99.90;;;;;;4971862;28;20104;-64
2023/03/09 03:22:06;;;;;;;25.27;14.07;;;0.90;99.90;;;;;;4986818;28;20497;-64
2023/03/09 03:24:39;;;;;;;27.70;14.95;;;0.90;99.90;;;;;;4988953;28;20053;-64
2023/03/09 03:27:05;;;;;;;24.10;15.02;;;0.90;99.90;;;;;;4987623;28;20050;-64
2023/03/09 03:29:31;;;;;;;23.05;13.52;;;0.90;99.90;;;;;;4988958;28;20058;-64
2023/03/09 03:31:57;;;;;;;23.05;13.05;;;0.90;99.90;;;;;;4987304;28;20452;-64
2023/03/09 03:34:24;;;;;;;18.00;12.73;;;1.00;99.90;;;;;;4969367;28;20046;-64
2023/03/09 03:36:50;;;;;;;22.98;13.63;;;0.90;99.90;;;;;;4988812;28;20112;-64
2023/03/09 03:39:15;;;;;;;27.52;13.65;;;0.90;99.90;;;;;;4970654;28;20513;-64
2023/03/09 03:41:41;;;;;;;23.20;13.02;;;0.90;99.90;;;;;;4989257;28;20046;-64
2023/03/09 03:44:07;;;;;;;22.48;14.27;;;0.90;99.90;;;;;;4986249;28;20152;-64
2023/03/09 03:46:33;;;;;;;21.67;13.38;;;1.00;99.90;;;;;;4988042;28;20038;-64
2023/03/09 03:48:58;;;;;;;19.27;11.52;;;0.90;99.90;;;;;;4987773;28;20058;-63
2023/03/09 03:51:24;;;;;;;21.90;13.68;;;0.80;99.90;;;;;;4970090;28;20572;-64
2023/03/09 03:53:50;;;;;;;20.52;12.80;;;0.90;99.90;;;;;;4988429;28;20060;-64
2023/03/09 03:56:16;;;;;;;21.45;12.32;;;0.90;99.90;;;;;;4986279;28;20129;-64
2023/03/09 03:58:42;;;;;;;25.15;13.52;;;0.90;99.90;;;;;;4988046;28;20053;-64
2023/03/09 04:01:08;;;;;;;21.65;13.45;;;1.00;99.90;;;;;;4991310;28;20046;-64
2023/03/09 04:03:33;;;;;;;26.27;13.40;;;1.00;99.90;;;;;;4988470;28;20162;-64
2023/03/09 04:06:00;;;;;;;21.80;12.90;;;1.00;99.90;;;;;;4981999;28;20046;-64
2023/03/09 04:08:26;;;;;;;21.40;12.73;;;0.90;99.90;;;;;;4967529;28;20568;-64
2023/03/09 04:10:52;;;;;;;23.30;11.95;;;1.00;99.90;;;;;;4952526;28;20043;-63
2023/03/09 04:13:17;;;;;;;19.70;12.07;;;0.90;99.90;;;;;;4966674;28;20057;-65
2023/03/09 04:15:43;;;;;;;26.95;12.65;;;0.90;99.90;;;;;;4981571;28;20042;-64
2023/03/09 04:18:09;;;;;;;21.80;12.90;;;0.90;99.90;;;;;;4978094;28;20035;-64
2023/03/09 04:20:36;;;;;;;25.20;13.57;;;0.90;99.90;;;;;;4967089;28;20086;-64
2023/03/09 04:23:02;;;;;;;21.33;12.32;;;0.90;99.90;;;;;;4980230;28;20057;-64
2023/03/09 04:25:28;;;;;;;21.60;12.82;;;0.90;99.90;;;;;;4968115;28;20043;-64
2023/03/09 04:27:54;;;;;;;20.05;12.38;;;0.90;99.90;;;;;;4979288;28;20049;-64
2023/03/09 04:30:21;;;;;;;24.35;13.68;;;0.80;99.90;;;;;;4965221;28;20047;-64
2023/03/09 04:32:49;;;;;;;29.27;14.10;;;0.80;99.90;;;;;;4968448;28;20050;-63
2023/03/09 04:35:16;;;;;;;18.33;11.95;;;0.80;99.90;;;;;;4969254;28;20560;-64
2023/03/09 04:37:43;;;;;;;22.35;12.90;;;0.90;99.90;;;;;;4968299;28;20582;-64
2023/03/09 04:40:09;;;;;;;24.05;12.93;;;0.80;99.90;;;;;;4966538;28;20105;-64
2023/03/09 04:42:35;;;;;;;20.20;12.52;;;0.80;99.90;;;;;;4973858;28;20104;-64
2023/03/09 04:45:03;;;;;;;18.55;11.85;;;0.80;99.90;;;;;;4966561;28;20401;-64
2023/03/09 04:47:29;;;;;;;16.38;11.15;;;0.80;99.90;;;;;;4973584;28;20050;-63
2023/03/09 04:49:55;;;;;;;19.83;12.65;;;0.80;99.90;;;;;;4968120;28;20049;-64
2023/03/09 04:52:21;;;;;;;23.90;13.40;;;0.80;99.90;;;;;;4965691;28;20145;-64
2023/03/09 04:54:47;;;;;;;19.08;12.60;;;0.70;99.90;;;;;;4968057;28;20552;-63
2023/03/09 04:57:13;;;;;;;21.92;12.63;;;0.70;99.90;;;;;;4967305;28;20057;-64
2023/03/09 04:59:39;;;;;;;16.20;10.48;;;0.70;99.90;;;;;;4967459;28;20098;-64
2023/03/09 05:02:05;;;;;;;18.15;12.15;;;0.70;99.90;;;;;;4963460;28;20047;-64
2023/03/09 05:04:31;;;;;;;21.25;11.75;;;0.70;99.90;;;;;;4972206;28;20539;-64
2023/03/09 05:06:57;;;;;;;18.65;12.05;;;0.70;99.90;;;;;;4987080;28;20050;-64
2023/03/09 05:09:23;;;;;;;18.80;11.82;;;0.70;99.90;;;;;;4976353;28;20038;-64
2023/03/09 05:11:51;;;;;;;22.95;12.90;;;0.70;99.90;;;;;;4987596;28;20074;-64
2023/03/09 05:14:21;;;;;;;18.15;11.85;;;0.70;99.90;;;;;;4987794;28;20117;-64
2023/03/09 05:16:53;;;;;;;19.55;12.18;;;0.80;99.90;;;;;;4990964;28;20034;-64
2023/03/09 05:19:20;;;;;;;21.55;11.65;;;0.80;99.90;;;;;;4994205;28;20058;-64
2023/03/09 05:21:46;;;;;;;20.00;11.98;;;0.80;99.90;;;;;;4976882;28;20177;-64
2023/03/09 05:24:12;;;;;;;19.27;11.10;;;0.80;99.90;;;;;;4997149;28;20507;-63
2023/03/09 05:26:38;;;;;;;17.17;11.35;;;0.80;99.90;;;;;;4987120;28;20051;-64
2023/03/09 05:29:04;;;;;;;22.17;12.23;;;0.70;99.90;;;;;;4989985;28;20065;-63
2023/03/09 05:31:30;;;;;;;21.20;12.40;;;0.80;99.90;;;;;;4992256;28;20084;-63
2023/03/09 05:33:55;;;;;;;19.48;12.38;;;0.80;99.90;;;;;;5007705;28;20042;-63
2023/03/09 05:36:25;;;;;;;20.05;12.18;;;0.70;99.90;;;;;;5002134;28;20425;-63
2023/03/09 05:38:52;;;;;;;16.38;11.00;;;0.70;99.90;;;;;;4992173;28;20125;-63
2023/03/09 05:41:18;;;;;;;21.58;11.65;;;0.80;99.90;;;;;;4993666;28;20046;-63
2023/03/09 05:43:44;;;;;;;17.90;11.23;;;0.70;99.90;;;;;;4991148;28;20046;-63
2023/03/09 05:46:13;;;;;;;24.20;12.85;;;0.70;99.90;;;;;;4994111;28;20519;-63
2023/03/09 05:48:39;;;;;;;19.38;11.50;;;0.70;99.90;;;;;;5005356;28;20081;-64
2023/03/09 05:51:07;;;;;;;18.98;11.55;;;0.80;99.90;;;;;;5006767;28;20042;-63
2023/03/09 05:53:33;;;;;;;22.77;12.43;;;0.70;99.90;;;;;;4990382;28;20109;-63
2023/03/09 05:56:00;;;;;;;20.67;12.75;;;0.80;99.90;;;;;;4983283;28;20049;-63
2023/03/09 05:58:26;;;;;;;21.63;12.55;;;0.70;99.90;;;;;;4997753;28;20811;-63
2023/03/09 06:00:52;;;;;;;18.02;12.00;;;0.70;99.90;;;;;;5005184;28;20097;-63
2023/03/09 06:03:21;;;;;;;19.45;12.10;;;0.80;99.90;;;;;;5003610;28;20038;-63
2023/03/09 06:05:47;;;;;;;20.33;11.98;;;0.80;99.90;;;;;;5005350;28;20111;-63
2023/03/09 06:08:13;;;;;;;16.88;11.88;;;0.80;99.90;;;;;;5006165;28;20050;-64
2023/03/09 06:10:39;;;;;;;17.48;11.95;;;0.80;99.90;;;;;;4992289;28;20073;-64
2023/03/09 06:13:05;;;;;;;19.00;13.02;;;0.80;99.90;;;;;;4972755;28;20046;-63
2023/03/09 06:15:32;;;;;;;24.48;12.60;;;0.80;99.90;;;;;;4988900;28;20405;-63
2023/03/09 06:17:57;;;;;;;24.25;11.80;;;0.80;99.90;;;;;;4989125;28;20510;-63
2023/03/09 06:20:23;;;;;;;16.08;12.18;;;0.80;99.90;;;;;;4990513;28;20065;-63
2023/03/09 06:22:49;;;;;;;20.83;11.25;;;0.80;99.90;;;;;;4988329;28;20133;-64
2023/03/09 06:25:15;;;;;;;20.35;12.15;;;0.90;99.90;;;;;;4989923;28;20100;-63
2023/03/09 06:27:41;;;;;;;20.58;11.73;;;1.00;99.90;;;;;;4992194;28;20109;-63
2023/03/09 06:30:08;;;;;;;20.88;11.98;;;1.00;99.90;;;;;;4990273;28;20047;-63
2023/03/09 06:32:34;;;;;;;19.55;12.30;;;1.00;99.90;;;;;;4987962;28;20505;-63
2023/03/09 06:35:01;;;;;;;17.05;10.77;;;1.00;99.90;;;;;;4993285;28;20496;-63
2023/03/09 06:37:27;;;;;;;23.55;11.98;;;1.10;99.90;;;;;;4997902;28;20635;-63
2023/03/09 06:39:53;;;;;;;16.75;10.27;;;1.10;99.90;;;;;;4986701;28;20513;-63
2023/03/09 06:42:19;;;;;;;18.63;12.10;;;1.10;99.90;;;;;;4988157;28;20047;-63
2023/03/09 06:44:45;;;;;;;18.38;11.93;;;1.10;99.90;;;;;;4988008;28;20200;-63
2023/03/09 06:47:11;;;;;;;18.40;12.13;;;1.10;99.90;;;;;;4989694;28;20143;-63
2023/03/09 06:49:37;;;;;;;16.60;11.25;;;1.20;99.90;;;;;;4988353;28;20084;-63
2023/03/09 06:52:05;;;;;;;20.58;12.25;;;1.20;99.90;;;;;;4989773;28;20480;-63
2023/03/09 06:54:30;;;;;;;20.70;11.05;;;1.20;99.90;;;;;;4988789;28;20042;-63
2023/03/09 06:56:56;;;;;;;19.25;11.27;;;1.20;99.90;;;;;;4983276;28;20072;-63
2023/03/09 06:59:22;;;;;;;20.00;11.20;;;1.20;99.90;;;;;;4996214;28;20050;-63
2023/03/09 07:01:47;;;;;;;16.55;11.00;;;1.30;99.90;;;;;;4994569;28;20041;-63
2023/03/09 07:04:13;;;;;;;20.10;11.27;;;1.30;99.90;;;;;;4989277;28;20062;-63
2023/03/09 07:06:39;;;;;;;21.83;11.05;;;1.30;99.90;;;;;;4986809;28;20128;-63
2023/03/09 07:09:05;;;;;;;22.65;11.98;;;1.40;99.90;;;;;;4991527;28;20081;-63
2023/03/09 07:11:30;;;;;;;19.40;11.43;;;1.40;99.90;;;;;;5001238;28;20073;-63
2023/03/09 07:13:56;;;;;;;16.95;11.00;;;1.40;99.90;;;;;;4993648;28;20089;-64
2023/03/09 07:16:22;;;;;;;15.88;10.52;;;1.50;99.90;;;;;;4988240;28;20057;-63
2023/03/09 07:18:49;;;;;;;15.50;10.93;;;1.50;99.90;;;;;;4991974;28;20109;-63
2023/03/09 07:21:14;;;;;;;15.20;10.88;;;1.60;99.90;;;;;;4990738;28;20052;-64
2023/03/09 07:23:40;;;;;;;18.90;10.93;;;1.60;99.90;;;;;;4996078;28;20050;-64
2023/03/09 07:26:07;;;;;;;14.90;10.80;;;1.60;99.90;;;;;;4971206;28;20049;-64
2023/03/09 07:28:33;;;;;;;17.00;11.52;;;1.60;99.90;;;;;;4986457;28;20125;-65
2023/03/09 07:31:05;;;;;;;19.30;11.20;;;1.70;99.90;;;;;;4989034;28;20418;-64
2023/03/09 07:33:31;;;;;;;16.10;10.73;;;1.60;99.90;;;;;;4987887;28;20097;-64
2023/03/09 07:35:56;;;;;;;18.40;9.55;;;1.60;99.90;;;;;;4988411;28;20557;-64
2023/03/09 07:38:22;;;;;;;13.63;9.60;;;1.60;99.90;;;;;;4988506;28;20042;-64
2023/03/09 07:40:48;;;;;;;12.27;9.82;;;1.70;99.90;;;;;;4986284;28;20046;-64
2023/03/09 07:43:13;;;;;;;16.05;10.13;;;1.80;99.90;;;;;;4970514;28;20042;-64
2023/03/09 07:45:40;;;;;;;16.15;10.82;;;1.80;99.90;;;;;;4989150;28;20058;-64
2023/03/09 07:48:06;;;;;;;12.07;9.48;;;1.80;99.90;;;;;;4974256;28;20126;-64
2023/03/09 07:50:31;;;;;;;14.82;9.68;;;1.80;99.90;;;;;;4987406;28;20436;-64
2023/03/09 07:52:57;;;;;;;16.10;9.88;;;1.90;99.90;;;;;;5000319;28;20096;-64
2023/03/09 07:55:23;;;;;;;11.68;8.98;;;1.90;99.90;;;;;;4982000;28;20089;-64
2023/03/09 07:57:49;;;;;;;14.80;10.85;;;2.00;99.90;;;;;;4994737;28;20408;-65
2023/03/09 08:00:20;;;;;;;15.55;10.07;;;2.10;99.90;;;;;;4996846;28;20038;-64
2023/03/09 08:02:46;;;;;;;13.38;10.02;;;2.20;99.90;;;;;;4988484;28;20077;-64
2023/03/09 08:05:13;;;;;;;14.38;10.55;;;2.30;99.90;;;;;;4995781;28;20081;-62
2023/03/09 08:07:42;;;;;;;15.60;9.63;;;2.40;99.90;;;;;;4987063;28;20511;-62
2023/03/09 08:10:09;;;;;;;14.88;9.30;;;2.40;99.00;;;;;;4988675;28;20085;-62
2023/03/09 08:12:35;;;;;;;13.27;9.70;;;2.50;98.30;;;;;;4999069;28;20061;-62
2023/03/09 08:15:01;;;;;;;12.40;8.75;;;2.60;97.70;;;;;;4998981;28;20408;-62
2023/03/09 08:17:28;;;;;;;12.88;9.00;;;2.70;98.00;;;;;;4998518;28;20509;-62
2023/03/09 08:19:54;;;;;;;12.88;9.52;;;2.80;97.20;;;;;;4993763;28;20054;-62
2023/03/09 08:22:19;;;;;;;13.45;9.18;;;2.90;96.50;;;;;;4973716;28;20049;-62
2023/03/09 08:24:45;;;;;;;17.80;10.10;;;3.00;97.20;;;;;;5000988;28;20053;-62
2023/03/09 08:27:11;;;;;;;13.82;8.85;;;3.00;95.10;;;;;;4991980;28;20428;-62
2023/03/09 08:29:37;;;;;;;13.60;8.57;;;2.90;94.00;;;;;;4990237;28;20050;-62
2023/03/09 08:32:09;;;;;;;10.77;7.93;;;2.90;95.10;;;;;;4994161;28;20057;-62
2023/03/09 08:34:36;;;;;;;12.25;7.70;;;2.90;93.00;;;;;;4971750;28;20092;-62
2023/03/09 08:37:01;;;;;;;11.80;8.25;;;2.90;94.30;;;;;;4993117;28;20057;-62
2023/03/09 08:39:27;;;;;;;12.98;8.43;;;2.90;93.80;;;;;;4992447;28;20050;-62
2023/03/09 08:41:53;;;;;;;10.25;7.78;;;2.90;94.00;;;;;;4970570;28;20069;-62
2023/03/09 08:44:19;;;;;;;9.10;7.22;;;3.00;95.00;;;;;;4991104;28;20043;-62
2023/03/09 08:46:44;;;;;;;12.00;7.25;;;3.10;94.40;;;;;;4971476;28;20560;-62
2023/03/09 08:49:10;;;;;;;10.55;6.95;;;3.20;94.10;;;;;;4994813;28;20462;-62
2023/03/09 08:51:36;;;;;;;11.18;7.05;;;3.40;93.00;;;;;;4998533;28;20046;-62
2023/03/09 08:54:01;;;;;;;8.52;6.07;;;3.50;92.00;;;;;;4993225;28;20057;-62
2023/03/09 08:56:27;;;;;;;11.27;7.63;;;3.60;90.70;;;;;;4989383;28;20058;-62
2023/03/09 08:58:53;;;;;;;9.80;6.22;;;3.70;90.90;;;;;;4967632;28;20141;-62
2023/03/09 09:01:19;;;;;;;8.93;6.68;;;3.70;88.40;;;;;;4976967;28;20042;-62
2023/03/09 09:03:44;;;;;;;12.57;7.13;;;3.70;88.40;;;;;;4991012;28;20108;-62
2023/03/09 09:06:13;;;;;;;8.57;6.65;;;3.80;90.20;;;;;;5004459;28;20161;-62
2023/03/09 09:08:40;;;;;;;9.20;6.47;;;3.80;87.60;;;;;;4995350;28;20053;-62
2023/03/09 09:11:14;;;;;;;10.20;6.53;;;3.90;87.40;;;;;;4974122;28;20125;-62
2023/03/09 09:13:41;;;;;;;9.80;6.95;;;4.00;87.20;;;;;;5002248;28;20074;-62
2023/03/09 09:16:09;;;;;;;11.38;6.05;;;4.00;86.80;;;;;;4960154;28;20120;-62
2023/03/09 09:18:36;;;;;;;9.82;6.90;;;4.00;84.00;;;;;;4991483;28;20103;-62
2023/03/09 09:21:11;;;;;;;9.70;7.63;;;3.90;84.20;;;;;;5000223;28;20054;-62
2023/03/09 09:23:38;;;;;;;9.32;6.82;;;3.90;83.40;;;;;;4999666;28;20042;-62
2023/03/09 09:26:05;;;;;;;8.05;5.43;;;3.90;84.80;;;;;;4996755;28;20157;-62
2023/03/09 09:28:31;;;;;;;10.68;6.90;;;3.90;86.40;;;;;;4975088;28;20070;-62
2023/03/09 09:31:01;;;;;;;9.35;5.40;;;3.90;84.60;;;;;;4995469;28;20120;-62
2023/03/09 09:33:28;;;;;;;9.25;6.93;;;3.80;83.90;;;;;;4993647;28;20134;-62
2023/03/09 09:36:10;;;;;;;8.43;6.78;;;3.80;84.80;;;;;;4994394;28;20126;-62
2023/03/09 09:38:37;;;;;;;8.30;6.45;;;3.90;84.70;;;;;;4975556;28;20096;-62
2023/03/09 09:41:11;;;;;;;8.32;6.60;;;4.10;86.50;;;;;;4994881;28;20136;-62
2023/03/09 09:43:37;;;;;;;7.68;6.25;;;4.20;84.20;;;;;;4974623;28;20505;-62
2023/03/09 09:46:04;;;;;;;11.88;6.70;;;4.30;87.00;;;;;;4994146;28;20519;-62
2023/03/09 09:48:31;;;;;;;9.68;6.40;;;4.50;81.40;;;;;;4998730;28;20046;-62
2023/03/09 09:51:34;;;;;;;9.98;6.28;;;4.60;82.80;;;;;;4987890;28;20057;-62
2023/03/09 09:54:11;;;;;;;7.78;6.22;;;4.60;80.40;;;;;;4992514;28;20034;-62
2023/03/09 09:56:47;;;;;;;14.07;6.53;;;4.70;80.00;;;;;;4993900;28;20050;-61
2023/03/09 09:59:47;;;;;;;8.80;6.65;;;4.70;78.30;;;;;;4992232;28;20046;-61
2023/03/09 10:02:34;;;;;;;10.13;7.68;;;4.70;77.80;;;;;;4980298;28;20065;-61
2023/03/09 10:05:16;;;;;;;9.52;7.18;;;4.80;80.80;;;;;;4989717;28;20098;-61
2023/03/09 10:07:44;;;;;;;8.50;6.65;;;4.70;77.00;;;;;;4980134;28;20050;-61
2023/03/09 10:10:26;;;;;;;8.40;6.65;;;4.70;78.40;;;;;;4990384;28;20038;-62
2023/03/09 10:12:54;;;;;;;10.63;7.85;;;4.60;75.80;;;;;;4998288;28;20054;-61
2023/03/09 10:15:29;;;;;;;8.13;6.43;;;4.60;79.00;;;;;;4989139;28;20049;-62
2023/03/09 10:18:16;;;;;;;11.30;6.32;;;4.60;80.30;;;;;;4973323;28;20054;-62
2023/03/09 10:20:52;;;;;;;8.75;6.72;;;4.60;78.10;;;;;;4996449;28;20050;-62
2023/03/09 10:23:29;;;;;;;7.72;6.95;;;4.80;82.60;;;;;;4999393;28;20081;-62
2023/03/09 10:26:21;;;;;;;11.10;7.03;;;5.20;84.50;;;;;;4998032;28;20038;-62
2023/03/09 10:28:49;;;;;;;10.02;7.20;;;5.40;79.00;;;;;;4971078;28;20056;-61
2023/03/09 10:31:20;;;;;;;8.48;6.65;;;5.30;71.90;;;;;;5002049;28;20041;-61
2023/03/09 10:34:19;;;;;;;7.63;6.25;;;5.10;72.10;;;;;;4998475;28;20108;-62
2023/03/09 10:37:12;;;;;;;7.05;6.10;;;5.00;73.70;;;;;;4977408;28;20053;-61
2023/03/09 10:39:45;;;;;;;8.52;5.82;;;5.10;78.60;;;;;;4974177;28;20317;-61
2023/03/09 10:42:21;;;;;;;10.32;6.45;;;5.20;75.70;;;;;;4975457;28;20076;-61
2023/03/09 10:45:12;;;;;;;10.07;5.75;;;5.40;77.30;;;;;;4988900;28;20164;-61
2023/03/09 10:47:49;;;;;;;8.57;6.20;;;5.50;76.00;;;;;;4987426;28;20093;-61
2023/03/09 10:50:16;;;;;;;7.07;5.82;;;5.50;72.60;;;;;;5000758;28;20042;-61
2023/03/09 10:52:42;;;;;;;10.18;6.10;;;5.30;72.40;;;;;;4992515;28;20082;-61
2023/03/09 10:55:31;;;;;;;9.77;5.38;;;5.10;71.40;;;;;;4976335;28;20065;-61
2023/03/09 10:58:31;;;;;;;5.82;5.15;;;4.90;73.40;;;;;;4988471;28;20104;-61
2023/03/09 11:01:18;;;;;;;9.63;5.65;;;4.90;73.70;;;;;;4976491;28;20050;-61
2023/03/09 11:03:44;;;;;;;5.88;4.88;;;4.90;75.20;;;;;;5003066;28;21086;-61
2023/03/09 11:06:15;;;;;;;7.68;6.18;;;4.90;72.80;;;;;;4996291;28;20165;-61
2023/03/09 11:08:53;;;;;;;6.10;4.97;;;4.70;73.30;;;;;;4968855;28;20523;-61
2023/03/09 11:11:21;;;;;;;6.05;5.28;;;4.60;72.00;;;;;;4990328;28;20043;-61
2023/03/09 11:13:47;;;;;;;7.05;4.70;;;4.60;75.30;;;;;;4988057;28;20104;-61
2023/03/09 11:16:14;;;;;;;4.95;4.40;;;4.70;76.50;;;;;;4959079;28;20042;-61
2023/03/09 11:18:40;;;;;;;5.50;5.03;;;4.80;73.70;;;;;;4971113;28;20713;-61
2023/03/09 11:21:06;;;;;;;7.30;5.47;;;4.80;74.10;;;;;;4987294;28;20054;-61
2023/03/09 11:23:47;;;;;;;7.63;5.55;;;4.80;77.70;;;;;;4977540;28;20050;-61
2023/03/09 11:26:31;;;;;;;7.40;5.63;;;4.80;73.30;;;;;;5003932;28;20053;-61
2023/03/09 11:29:20;;;;;;;11.43;5.85;;;4.70;76.90;;;;;;5002825;28;20060;-62
2023/03/09 11:31:46;;;;;;;5.97;5.38;;;4.70;75.60;;;;;;4990460;28;20118;-61
2023/03/09 11:34:27;;;;;;;6.10;5.28;;;4.70;77.30;;;;;;5001610;28;20556;-61
2023/03/09 11:37:07;;;;;;;10.50;5.90;;;4.80;77.30;;;;;;4989464;28;20038;-61
2023/03/09 11:39:38;;;;;;;9.30;5.03;;;4.80;76.30;;;;;;4972132;28;20053;-61
2023/03/09 11:42:05;;;;;;;;;;;4.80;75.80;;;;;;4973701;28;20451;-61
2023/03/09 11:44:36;;;;;;;6.60;5.43;;;4.90;77.10;;;;;;4991026;28;19947;-61
2023/03/09 11:47:05;;;;;;;7.32;4.97;;;4.90;75.40;;;;;;4980313;28;20060;-61
2023/03/09 11:49:33;;;;;;;7.35;5.03;;;4.90;76.20;;;;;;4994274;28;20531;-61
2023/03/09 11:51:59;;;;;;;5.70;4.97;;;5.00;73.60;;;;;;4994865;28;20049;-61
2023/03/09 11:54:39;;;;;;;4.60;4.20;;;5.00;74.90;;;;;;4970138;28;20081;-61
2023/03/09 11:57:13;;;;;;;5.20;4.63;;;5.10;77.40;;;;;;4978294;28;20500;-61
2023/03/09 11:59:43;;;;;;;4.80;4.30;;;5.20;77.10;;;;;;4993009;28;20051;-61
2023/03/09 12:02:12;;;;;;;;;;;5.20;71.20;;;;;;4998850;28;20045;-61
2023/03/09 12:04:38;;;;;;;5.10;4.60;;;5.00;70.50;;;;;;4992765;28;19921;-61
2023/03/09 12:07:20;;;;;;;5.40;4.80;;;4.90;72.20;;;;;;4995757;28;20050;-61
2023/03/09 12:09:58;;;;;;;4.72;4.32;;;4.90;72.90;;;;;;4990728;28;20054;-63
2023/03/09 12:12:29;;;;;;;8.27;5.20;;;4.90;72.60;;;;;;4984431;28;20721;-64
2023/03/09 12:15:06;;;;;;;6.10;4.35;;;4.80;72.50;;;;;;4985815;28;20046;-63
2023/03/09 12:17:40;;;;;;;6.15;4.82;;;4.80;74.90;;;;;;4985715;28;20197;-63
2023/03/09 12:20:06;;;;;;;5.35;4.72;;;4.80;72.20;;;;;;4987375;28;20149;-63
2023/03/09 12:22:37;;;;;;;4.82;4.43;;;4.80;73.40;;;;;;4990740;28;20047;-63
2023/03/09 12:25:15;;;;;;;5.53;4.65;;;4.70;74.20;;;;;;4976287;28;20416;-63
2023/03/09 12:27:51;;;;;;;5.47;4.53;;;4.80;74.80;;;;;;4992094;28;20046;-62
2023/03/09 12:30:28;;;;;;;11.48;5.07;;;4.80;75.00;;;;;;4987806;28;20049;-63
2023/03/09 12:32:56;;;;;;;4.93;4.53;;;4.80;74.30;;;;;;4973606;28;20088;-63
2023/03/09 12:35:45;;;;;;;5.97;5.40;;;4.80;73.60;;;;;;4994966;28;20054;-63
2023/03/09 12:38:17;;;;;;;6.93;5.13;;;4.80;75.20;;;;;;4995142;28;20396;-63
2023/03/09 12:40:44;;;;;;;5.07;4.65;;;4.80;75.50;;;;;;4970881;28;20420;-63
2023/03/09 12:43:16;;;;;;;5.50;5.00;;;4.90;74.90;;;;;;4969506;28;20050;-63
2023/03/09 12:45:43;;;;;;;6.38;5.47;;;4.90;73.30;;;;;;4991222;28;20504;-63
2023/03/09 12:48:11;;;;;;;6.68;4.80;;;4.80;72.60;;;;;;4992858;28;20133;-63
2023/03/09 12:50:42;;;;;;;6.10;4.32;;;4.80;74.60;;;;;;4999691;28;20050;-63
2023/03/09 12:53:14;;;;;;;6.50;4.80;;;4.80;71.40;;;;;;4982001;28;20049;-63
2023/03/09 12:55:39;;;;;;;7.20;5.20;;;4.90;72.80;;;;;;4990842;28;20042;-63